Главная страница
METAR-TAF:

METAR-TAF

Аэропорты :

Кингстон, Ямайка

широта: 17-56N, долгота: 076-47W, высота над уровнем моря: 3 м

Текущие метеонаблюдения

Эта сводка был подготовлена 1 час и 9 минут назад, в 19:00 UTC
Ветер 20 Узел от юго-юго-восточный
Температура 30°C
Влажность 66%
Давление 1011 hPa
Видимость 10 км и более
небольшая облачность на высоте 2200 фута

METAR: MKJP 221900Z 15020KT 9999 FEW022 30/23 Q1011

Время: 15:09 (20:09 UTC)

Прогноз

Эта сводка был подготовлена 2 часа и 54 минут назад, в 17:15 UTC
Прогноз действительный с 22-го 18 UTC до 23-го 18 UTC
Ветер 18 Узел от юго-восточный
Видимость 10 км и более
небольшая облачность на высоте 2200 фута
изменения
С 23-го 02 UTC до 23-го 04 UTC
Ветер 5 Узел от северный
изменения
С 23-го 14 UTC до 23-го 16 UTC
Ветер 17 Узел от юго-восточный

TAF: MKJP 221715Z 2218/2318 13018KT 9999 FEW022 BECMG 2302/2304 35005KT BECMG 2314/2316 14017KT

Метеонаблюдения и прогнозы для более 4000 аэропортов (сводки METAR и TAF).

Имеющиеся станции представлены на карте желтыми и красными точками.

Чтобы увидеть название станции, наведите на нее мышь.

Затем щелкните, чтобы увидеть метеонаблюдения и метеопрогнозы.

Управление картой: чтобы увеличить масштаб, щелкните зеленые кнопки с черным крестиком; чтобы уменьшить масштаб, щелкните зеленую кнопку с тире; для просмотра соседних карт щелкайте зеленые стрелки.


METAR-TAF: